Time;durP1;ratioP1;P1;durP2;ratioP2;P2;SDS_P1;SDS_P2;PMS_P1;PMS_P2;Temp;Humidity;BMP_temperature;BMP_pressure;BME280_temperature;BME280_humidity;BME280_pressure;Samples;Min_cycle;Max_cycle;Signal;HPM_P1;HPM_P2
2022/04/02 00:02:22;;;;;;;;;;;;;;;21.24;34.15;101805.69;7279858;19;153371;-60
2022/04/02 00:04:52;;;;;;;;;;;;;;;21.21;34.00;101811.91;7278289;19;153470;-58
2022/04/02 00:07:19;;;;;;;;;;;;;;;21.18;34.48;101815.28;7280638;19;152010;-58
2022/04/02 00:09:46;;;;;;;;;;;;;;;21.15;34.00;101816.72;7280122;19;153564;-58
2022/04/02 00:12:13;;;;;;;;;;;;;;;21.13;34.44;101818.13;7280321;19;153381;-58
2022/04/02 00:14:39;;;;;;;;;;;;;;;21.09;34.13;101819.81;7276181;19;151965;-58
2022/04/02 00:17:06;;;;;;;;;;;;;;;21.06;34.40;101820.41;7285618;19;153330;-58
2022/04/02 00:19:33;;;;;;;;;;;;;;;21.01;34.58;101824.09;7281694;19;151995;-58
2022/04/02 00:21:59;;;;;;;;;;;;;;;20.99;34.73;101826.31;7281380;19;153037;-58
2022/04/02 00:24:26;;;;;;;;;;;;;;;20.96;34.61;101828.88;7277847;19;155726;-58
2022/04/02 00:26:53;;;;;;;;;;;;;;;20.91;34.79;101826.94;7282004;19;152256;-58
2022/04/02 00:29:20;;;;;;;;;;;;;;;20.88;35.15;101816.28;7280126;19;153846;-58
2022/04/02 00:31:46;;;;;;;;;;;;;;;20.88;34.67;101824.72;7279981;19;153820;-59
2022/04/02 00:34:13;;;;;;;;;;;;;;;20.85;35.08;101823.31;7280756;19;151930;-59
2022/04/02 00:36:40;;;;;;;;;;;;;;;20.81;35.04;101822.22;7279614;19;153565;-59
2022/04/02 00:39:07;;;;;;;;;;;;;;;20.79;35.20;101830.13;7288282;19;153189;-60
2022/04/02 00:41:34;;;;;;;;;;;;;;;20.78;34.81;101822.81;7280246;19;152703;-59
2022/04/02 00:44:09;;;;;;;;;;;;;;;20.75;35.31;101823.41;7280332;19;153471;-59
2022/04/02 00:46:36;;;;;;;;;;;;;;;20.74;35.17;101820.88;7278329;19;152351;-59
2022/04/02 00:49:04;;;;;;;;;;;;;;;20.73;35.27;101813.56;7280336;19;153532;-60
2022/04/02 00:51:31;;;;;;;;;;;;;;;20.70;35.41;101812.19;7277327;19;152660;-58
2022/04/02 00:53:59;;;;;;;;;;;;;;;20.67;35.39;101820.34;7280652;19;151963;-59
2022/04/02 00:56:26;;;;;;;;;;;;;;;20.68;35.09;101813.59;7281151;19;153707;-58
2022/04/02 00:58:53;;;;;;;;;;;;;;;20.64;35.57;101816.13;7278085;19;153396;-58
2022/04/02 01:01:20;;;;;;;;;;;;;;;20.66;35.32;101819.50;7287693;19;152308;-59
2022/04/02 01:03:47;;;;;;;;;;;;;;;20.63;35.28;101820.06;7277088;19;156097;-58
2022/04/02 01:06:14;;;;;;;;;;;;;;;20.62;35.30;101821.22;7277552;19;152346;-57
2022/04/02 01:08:41;;;;;;;;;;;;;;;20.59;35.31;101810.53;7280151;19;152622;-58
2022/04/02 01:11:07;;;;;;;;;;;;;;;20.57;35.36;101809.16;7278876;19;154032;-57
2022/04/02 01:13:34;;;;;;;;;;;;;;;20.53;35.63;101817.31;7276364;19;151943;-57
2022/04/02 01:16:02;;;;;;;;;;;;;;;20.50;35.63;101809.47;7279517;19;153448;-57
2022/04/02 01:18:29;;;;;;;;;;;;;;;20.51;35.83;101813.94;7275381;19;153419;-58
2022/04/02 01:20:55;;;;;;;;;;;;;;;20.46;35.53;101808.34;7286880;19;152407;-58
2022/04/02 01:23:28;;;;;;;;;;;;;;;20.47;35.60;101807.22;7277681;19;154223;-58
2022/04/02 01:25:59;;;;;;;;;;;;;;;20.46;35.83;101810.31;7278542;19;151804;-57
2022/04/02 01:28:33;;;;;;;;;;;;;;;20.40;35.74;101807.53;7278068;19;153333;-58
2022/04/02 01:31:05;;;;;;;;;;;;;;;20.38;35.91;101808.97;7278119;19;153308;-57
2022/04/02 01:33:32;;;;;;;;;;;;;;;20.37;35.69;101810.91;7277218;19;153155;-57
2022/04/02 01:36:02;;;;;;;;;;;;;;;20.36;36.07;101809.22;7278791;19;153512;-57
2022/04/02 01:38:29;;;;;;;;;;;;;;;20.31;35.92;101817.66;7275557;19;153860;-58
2022/04/02 01:40:56;;;;;;;;;;;;;;;20.30;35.76;101815.16;7279092;19;151887;-57
2022/04/02 01:43:24;;;;;;;;;;;;;;;20.29;35.83;101819.91;7284944;19;152703;-57
2022/04/02 01:46:00;;;;;;;;;;;;;;;20.25;36.15;101824.41;7276436;19;152170;-57
2022/04/02 01:48:28;;;;;;;;;;;;;;;20.24;35.85;101828.34;7278514;19;152726;-57
2022/04/02 01:50:54;;;;;;;;;;;;;;;20.20;36.19;101820.78;7277122;19;152636;-57
2022/04/02 01:53:22;;;;;;;;;;;;;;;20.18;35.97;101826.66;7279090;19;151957;-57
2022/04/02 01:55:49;;;;;;;;;;;;;;;20.17;35.93;101824.97;7275583;19;152669;-59
2022/04/02 01:58:17;;;;;;;;;;;;;;;20.10;36.66;101829.22;7277723;19;153451;-59
2022/04/02 02:00:44;;;;;;;;;;;;;;;20.06;36.37;101825.28;7278164;19;153060;-58
2022/04/02 02:03:12;;;;;;;;;;;;;;;19.99;36.73;101817.16;7283992;19;153010;-59
2022/04/02 02:05:41;;;;;;;;;;;;;;;19.97;36.72;101823.06;7290805;19;155056;-58
2022/04/02 02:08:10;;;;;;;;;;;;;;;19.93;36.88;101829.53;7284417;19;151820;-58
2022/04/02 02:10:37;;;;;;;;;;;;;;;19.89;36.73;101817.19;7282156;19;153240;-57
2022/04/02 02:13:04;;;;;;;;;;;;;;;19.85;36.97;101816.91;7284119;19;152454;-58
2022/04/02 02:15:31;;;;;;;;;;;;;;;19.83;36.78;101830.38;7285379;19;152829;-57
2022/04/02 02:17:57;;;;;;;;;;;;;;;19.83;36.56;101813.56;7279326;19;154327;-57
2022/04/02 02:20:24;;;;;;;;;;;;;;;19.79;37.10;101820.84;7284787;19;151759;-57
2022/04/02 02:22:51;;;;;;;;;;;;;;;19.77;37.24;101814.69;7283267;19;153541;-57
2022/04/02 02:25:29;;;;;;;;;;;;;;;19.75;37.12;101811.34;7282689;19;154124;-57
2022/04/02 02:28:18;;;;;;;;;;;;;;;19.73;37.21;101818.31;7290640;19;151838;-58
2022/04/02 02:30:55;;;;;;;;;;;;;;;19.68;37.19;101815.53;7283325;19;152905;-57
2022/04/02 02:36:10;;;;;;;;;;;;;;;19.63;37.73;101813.56;7284002;19;152066;-57
2022/04/02 02:38:37;;;;;;;;;;;;;;;19.63;37.59;101812.72;7280458;19;153066;-57
2022/04/02 02:41:04;;;;;;;;;;;;;;;19.61;37.92;101809.38;7281709;19;152316;-58
2022/04/02 02:43:30;;;;;;;;;;;;;;;19.60;37.75;101810.50;7284128;19;152755;-58
2022/04/02 02:45:57;;;;;;;;;;;;;;;19.55;37.99;101802.91;7282388;19;153681;-59
2022/04/02 02:48:24;;;;;;;;;;;;;;;19.55;38.08;101811.34;7282003;19;151825;-58
2022/04/02 02:50:50;;;;;;;;;;;;;;;19.53;38.29;101808.81;7287406;19;152923;-59
2022/04/02 02:53:17;;;;;;;;;;;;;;;19.49;38.05;101810.47;7284287;19;152245;-58
2022/04/02 02:55:45;;;;;;;;;;;;;;;19.46;38.20;101804.59;7283308;19;153505;-60
2022/04/02 02:58:15;;;;;;;;;;;;;;;19.43;38.36;101808.81;7280925;19;153040;-59
2022/04/02 03:00:42;;;;;;;;;;;;;;;19.43;38.04;101805.16;7283167;19;153054;-58
2022/04/02 03:03:09;;;;;;;;;;;;;;;19.40;37.96;101802.88;7283613;19;152975;-60
2022/04/02 03:05:37;;;;;;;;;;;;;;;19.37;38.32;101811.84;7279666;19;154027;-60
2022/04/02 03:08:03;;;;;;;;;;;;;;;19.36;38.42;101808.22;7282399;19;151967;-58
2022/04/02 03:10:30;;;;;;;;;;;;;;;19.33;38.41;101807.94;7283433;19;153193;-60
2022/04/02 03:12:58;;;;;;;;;;;;;;;19.30;38.48;101806.56;7284403;19;152243;-57
2022/04/02 03:15:25;;;;;;;;;;;;;;;19.30;38.08;101797.28;7282809;19;152071;-58
2022/04/02 03:17:52;;;;;;;;;;;;;;;19.26;38.16;101813.00;7281340;19;154103;-56
2022/04/02 03:20:20;;;;;;;;;;;;;;;19.26;38.43;101802.59;7282028;19;152134;-56
2022/04/02 03:22:48;;;;;;;;;;;;;;;19.19;38.12;101799.25;7283462;19;151922;-56
2022/04/02 03:25:16;;;;;;;;;;;;;;;19.20;38.24;101805.69;7279454;19;154215;-56
2022/04/02 03:27:43;;;;;;;;;;;;;;;19.19;38.31;101815.22;7281950;19;151850;-58
2022/04/02 03:30:11;;;;;;;;;;;;;;;19.16;38.64;101808.22;7281184;19;152810;-57
2022/04/02 03:32:38;;;;;;;;;;;;;;;19.16;38.24;101810.16;7289399;19;154230;-56
2022/04/02 03:35:05;;;;;;;;;;;;;;;19.12;38.47;101812.69;7282447;19;153367;-57
2022/04/02 03:37:36;;;;;;;;;;;;;;;19.12;38.49;101801.47;7281736;19;153337;-57
2022/04/02 03:40:05;;;;;;;;;;;;;;;19.09;38.63;101810.44;7280251;19;151904;-57
2022/04/02 03:42:32;;;;;;;;;;;;;;;19.08;38.40;101815.19;7280757;19;153524;-57
2022/04/02 03:44:59;;;;;;;;;;;;;;;19.08;38.55;101806.78;7278319;19;153932;-56
2022/04/02 03:47:26;;;;;;;;;;;;;;;19.07;38.85;101815.47;7282646;19;152423;-57
2022/04/02 03:49:52;;;;;;;;;;;;;;;19.08;38.58;101822.75;7281673;19;153651;-55
2022/04/02 03:52:19;;;;;;;;;;;;;;;19.04;38.93;101814.06;7281367;19;152443;-56
2022/04/02 03:54:46;;;;;;;;;;;;;;;19.00;38.60;101818.53;7289782;19;152315;-56
2022/04/02 03:57:13;;;;;;;;;;;;;;;19.01;38.86;101819.38;7281625;19;153643;-57
2022/04/02 03:59:40;;;;;;;;;;;;;;;19.00;38.94;101818.53;7278875;19;151965;-55
2022/04/02 04:02:08;;;;;;;;;;;;;;;18.97;39.01;101809.84;7281337;19;152150;-55
2022/04/02 04:04:38;;;;;;;;;;;;;;;18.95;38.56;101818.53;7280437;19;152717;-56
2022/04/02 04:07:06;;;;;;;;;;;;;;;18.97;38.95;101815.44;7280938;19;152404;-55
2022/04/02 04:09:33;;;;;;;;;;;;;;;18.94;38.80;101814.03;7280882;19;152681;-57
2022/04/02 04:12:00;;;;;;;;;;;;;;;18.92;38.74;101813.47;7279085;19;153689;-57
2022/04/02 04:14:27;;;;;;;;;;;;;;;18.91;38.86;101816.53;7279130;19;152194;-57
2022/04/02 04:16:54;;;;;;;;;;;;;;;18.92;38.88;101824.69;7285810;19;153048;-56
2022/04/02 04:19:21;;;;;;;;;;;;;;;18.90;38.66;101823.25;7278602;19;151994;-57
2022/04/02 04:21:48;;;;;;;;;;;;;;;18.88;38.64;101822.72;7276969;19;153716;-56
2022/04/02 04:24:15;;;;;;;;;;;;;;;18.86;38.78;101822.13;7276718;19;154926;-56
2022/04/02 04:26:42;;;;;;;;;;;;;;;18.86;38.92;101824.94;7280776;19;151735;-57
2022/04/02 04:29:09;;;;;;;;;;;;;;;18.88;38.64;101822.72;7277518;19;153205;-56
2022/04/02 04:31:36;;;;;;;;;;;;;;;18.84;39.01;101825.22;7279333;19;154075;-57
2022/04/02 04:34:03;;;;;;;;;;;;;;;18.82;38.68;101821.00;7279312;19;151886;-57
2022/04/02 04:36:30;;;;;;;;;;;;;;;18.81;38.92;101824.91;7280078;19;153645;-56
2022/04/02 04:38:57;;;;;;;;;;;;;;;18.82;38.87;101827.44;7283857;19;154112;-57
2022/04/02 04:41:29;;;;;;;;;;;;;;;18.80;38.69;101832.50;7277684;19;153639;-57
2022/04/02 04:43:56;;;;;;;;;;;;;;;18.82;38.90;101832.19;7279335;19;153259;-57
2022/04/02 04:46:23;;;;;;;;;;;;;;;18.79;38.54;101825.22;7279901;19;152106;-56
2022/04/02 04:48:50;;;;;;;;;;;;;;;18.80;38.77;101824.09;7279481;19;152908;-56
2022/04/02 04:51:18;;;;;;;;;;;;;;;18.78;39.03;101826.31;7278275;19;155190;-57
2022/04/02 04:53:46;;;;;;;;;;;;;;;18.75;38.83;101831.63;7277146;19;151857;-55
2022/04/02 04:56:12;;;;;;;;;;;;;;;18.75;38.96;101834.44;7277751;19;153968;-56
2022/04/02 04:58:39;;;;;;;;;;;;;;;18.72;38.95;101835.81;7277381;19;156331;-57
2022/04/02 05:01:06;;;;;;;;;;;;;;;18.74;38.75;101833.59;7287414;19;152535;-56
2022/04/02 05:03:33;;;;;;;;;;;;;;;18.71;38.93;101839.75;7278647;19;155841;-56
2022/04/02 05:06:00;;;;;;;;;;;;;;;18.64;38.86;101837.19;7277360;19;152214;-57
2022/04/02 05:08:30;;;;;;;;;;;;;;;18.64;39.29;101839.16;7277776;19;152752;-57
2022/04/02 05:10:57;;;;;;;;;;;;;;;18.58;39.13;101843.03;7278671;19;154197;-56
2022/04/02 05:13:24;;;;;;;;;;;;;;;18.55;39.18;101843.59;7278976;19;152050;-56
2022/04/02 05:15:53;;;;;;;;;;;;;;;18.57;39.01;101849.75;7277280;19;153065;-56
2022/04/02 05:18:20;;;;;;;;;;;;;;;18.58;39.11;101849.47;7277557;19;154531;-57
2022/04/02 05:20:50;;;;;;;;;;;;;;;18.64;38.98;101855.94;7281958;19;151726;-56
2022/04/02 05:23:17;;;;;;;;;;;;;;;18.68;39.21;101857.06;7278738;19;154536;-56
2022/04/02 05:25:46;;;;;;;;;;;;;;;18.71;39.41;101862.16;7278160;19;151755;-57
2022/04/02 05:28:18;;;;;;;;;;;;;;;18.76;39.38;101862.13;7278973;19;152717;-56
2022/04/02 05:30:45;;;;;;;;;;;;;;;18.83;39.24;101864.69;7276654;19;154120;-56
2022/04/02 05:33:12;;;;;;;;;;;;;;;18.90;39.21;101870.84;7279220;19;151971;-56
2022/04/02 05:35:59;;;;;;;;;;;;;;;18.96;39.43;101875.38;7275184;19;154251;-56
2022/04/02 05:38:27;;;;;;;;;;;;;;;19.02;39.69;101872.31;7276767;19;152624;-55
2022/04/02 05:40:54;;;;;;;;;;;;;;;19.09;40.01;101866.44;7278903;19;151770;-55
2022/04/02 05:43:21;;;;;;;;;;;;;;;19.15;39.75;101867.31;7283474;19;153706;-56
2022/04/02 05:45:52;;;;;;;;;;;;;;;19.22;40.07;101870.66;7278193;19;151815;-55
2022/04/02 05:48:20;;;;;;;;;;;;;;;19.30;40.01;101872.94;7277272;19;153538;-58
2022/04/02 05:50:47;;;;;;;;;;;;;;;19.37;40.10;101877.16;7277246;19;152783;-56
2022/04/02 05:53:14;;;;;;;;;;;;;;;19.44;40.01;101866.53;7277328;19;152255;-55
2022/04/02 05:55:43;;;;;;;;;;;;;;;19.50;39.60;101861.78;7277469;19;153366;-57
2022/04/02 05:58:16;;;;;;;;;;;;;;;19.59;39.63;101873.28;7274720;19;152519;-56
2022/04/02 06:00:43;;;;;;;;;;;;;;;19.65;39.39;101870.22;7276871;19;152071;-56
2022/04/02 06:03:10;;;;;;;;;;;;;;;19.72;39.40;101872.72;7277026;19;153348;-59
2022/04/02 06:05:37;;;;;;;;;;;;;;;19.79;39.02;101882.53;7283681;19;153350;-59
2022/04/02 06:08:04;;;;;;;;;;;;;;;19.83;39.22;101880.00;7278381;19;152998;-58
2022/04/02 06:10:31;;;;;;;;;;;;;;;19.89;38.93;101878.91;7274624;19;154147;-58
2022/04/02 06:12:58;;;;;;;;;;;;;;;19.94;39.04;101885.31;7276404;19;151930;-57
2022/04/02 06:15:24;;;;;;;;;;;;;;;19.99;38.84;101885.31;7277706;19;152575;-61
2022/04/02 06:17:51;;;;;;;;;;;;;;;20.07;38.45;101892.34;7277766;19;153403;-59
2022/04/02 06:20:19;;;;;;;;;;;;;;;20.11;38.95;101895.44;7274873;19;151604;-59
2022/04/02 06:22:45;;;;;;;;;;;;;;;20.17;38.43;101900.72;7275579;19;152653;-59
2022/04/02 06:25:12;;;;;;;;;;;;;;;20.21;38.39;101907.47;7274305;19;153713;-59
2022/04/02 06:27:39;;;;;;;;;;;;;;;20.27;38.58;101905.50;7285461;19;152066;-60
2022/04/02 06:30:07;;;;;;;;;;;;;;;20.30;38.63;101911.44;7275933;19;154052;-59
2022/04/02 06:32:33;;;;;;;;;;;;;;;20.36;38.96;101923.47;7277434;19;151749;-60
2022/04/02 06:35:00;;;;;;;;;;;;;;;20.41;38.73;101913.06;7277126;19;152672;-60
2022/04/02 06:37:32;;;;;;;;;;;;;;;20.46;38.54;101912.22;7276233;19;154154;-60
2022/04/02 06:39:59;;;;;;;;;;;;;;;20.50;38.50;101921.75;7272063;19;152224;-60
2022/04/02 06:42:25;;;;;;;;;;;;;;;20.56;38.32;101925.41;7274159;19;153438;-60
2022/04/02 06:44:52;;;;;;;;;;;;;;;20.60;38.01;101924.53;7275824;19;154558;-59
2022/04/02 06:47:24;;;;;;;;;;;;;;;20.64;38.13;101924.81;7274882;19;151672;-59
2022/04/02 06:49:51;;;;;;;;;;;;;;;20.69;38.05;101931.25;7288057;19;152812;-58
2022/04/02 06:52:17;;;;;;;;;;;;;;;20.73;38.26;101935.16;7282437;19;152053;-58
2022/04/02 06:54:44;;;;;;;;;;;;;;;20.77;38.23;101941.03;7283235;19;153537;-59
2022/04/02 06:57:11;;;;;;;;;;;;;;;20.83;38.14;101945.53;7280225;19;153965;-59
2022/04/02 06:59:37;;;;;;;;;;;;;;;20.86;38.06;101948.59;7282802;19;151871;-59
2022/04/02 07:02:05;;;;;;;;;;;;;;;20.89;37.85;101947.22;7281644;19;153443;-59
2022/04/02 07:04:32;;;;;;;;;;;;;;;20.94;37.61;101955.59;7279790;19;154759;-59
2022/04/02 07:06:59;;;;;;;;;;;;;;;20.98;37.83;101950.25;7283081;19;151456;-56
2022/04/02 07:09:25;;;;;;;;;;;;;;;21.02;37.93;101960.63;7281594;19;153177;-56
2022/04/02 07:11:52;;;;;;;;;;;;;;;21.06;37.58;101960.91;7289552;19;154741;-58
2022/04/02 07:14:19;;;;;;;;;;;;;;;21.09;37.48;101957.50;7280374;19;152080;-56
2022/04/02 07:16:46;;;;;;;;;;;;;;;21.11;37.46;101958.06;7281462;19;153212;-56
2022/04/02 07:19:13;;;;;;;;;;;;;;;21.13;38.04;101959.47;7281536;19;151731;-58
2022/04/02 07:21:41;;;;;;;;;;;;;;;21.16;37.96;101969.31;7282606;19;154061;-56
2022/04/02 07:24:10;;;;;;;;;;;;;;;21.16;37.95;101969.31;7281653;19;155117;-57
2022/04/02 07:26:38;;;;;;;;;;;;;;;21.18;38.32;101981.09;7281148;19;151989;-57
2022/04/02 07:29:07;;;;;;;;;;;;;;;21.18;38.16;101984.75;7281928;19;153587;-57
2022/04/02 07:31:34;;;;;;;;;;;;;;;21.19;37.77;101980.81;7288319;19;155774;-57
2022/04/02 07:34:01;;;;;;;;;;;;;;;21.20;37.69;101987.28;7281491;19;153643;-56
2022/04/02 07:36:27;;;;;;;;;;;;;;;21.19;37.51;101977.16;7280515;19;153219;-57
2022/04/02 07:38:59;;;;;;;;;;;;;;;21.19;36.97;101977.16;7282104;19;152356;-56
2022/04/02 07:41:29;;;;;;;;;;;;;;;21.21;37.20;101980.53;7281492;19;153176;-55
2022/04/02 07:43:58;;;;;;;;;;;;;;;21.20;37.53;101981.66;7278146;19;154269;-55
2022/04/02 07:46:28;;;;;;;;;;;;;;;21.19;37.46;101983.63;7278526;19;152302;-56
2022/04/02 07:48:56;;;;;;;;;;;;;;;21.20;37.04;101981.66;7279064;19;155278;-56
2022/04/02 07:51:24;;;;;;;;;;;;;;;21.18;37.15;101987.56;7279237;19;153383;-56
2022/04/02 07:53:54;;;;;;;;;;;;;;;21.17;36.88;101985.03;7289069;19;151909;-55
2022/04/02 07:56:26;;;;;;;;;;;;;;;21.15;36.93;101981.69;7276642;19;152859;-56
2022/04/02 07:58:57;;;;;;;;;;;;;;;21.14;36.80;101988.44;7278333;19;151812;-56
2022/04/02 08:01:24;;;;;;;;;;;;;;;21.13;37.13;101990.41;7280545;19;152525;-56
2022/04/02 08:03:52;;;;;;;;;;;;;;;21.11;37.31;101991.78;7280161;19;154156;-56
2022/04/02 08:06:19;;;;;;;;;;;;;;;21.09;37.29;101992.06;7279976;19;152553;-56
2022/04/02 08:08:45;;;;;;;;;;;;;;;21.13;37.92;101996.00;7279737;19;152712;-57
2022/04/02 08:11:12;;;;;;;;;;;;;;;21.09;37.27;101985.59;7278040;19;153694;-57
2022/04/02 08:13:41;;;;;;;;;;;;;;;21.06;37.72;101984.22;7277362;19;151832;-57
2022/04/02 08:16:08;;;;;;;;;;;;;;;21.04;37.42;101991.25;7287692;19;152780;-57
2022/04/02 08:18:37;;;;;;;;;;;;;;;21.03;37.59;101983.97;7278730;19;152440;-58
2022/04/02 08:21:04;;;;;;;;;;;;;;;21.03;37.71;101986.78;7276151;19;152854;-56
2022/04/02 08:23:31;;;;;;;;;;;;;;;21.02;37.80;101985.09;7277596;19;155825;-56
2022/04/02 08:26:11;;;;;;;;;;;;;;;20.96;37.68;101987.06;7280539;19;152545;-57
2022/04/02 08:28:38;;;;;;;;;;;;;;;20.96;37.93;101989.88;7280942;19;153412;-55
2022/04/02 08:31:13;;;;;;;;;;;;;;;20.55;33.52;101989.13;7278878;19;153438;-55
2022/04/02 08:33:51;;;;;;;;;;;;;;;20.48;35.08;101984.94;7275484;19;151945;-56
2022/04/02 08:36:21;;;;;;;;;;;;;;;20.48;34.60;101988.59;7280579;19;153746;-56
2022/04/02 08:38:50;;;;;;;;;;;;;;;20.44;34.49;101984.66;7284201;19;153525;-55
2022/04/02 08:41:24;;;;;;;;;;;;;;;20.39;34.46;101995.91;7277071;19;152803;-55
2022/04/02 08:44:17;;;;;;;;;;;;;;;20.34;34.30;101995.91;7278604;19;153489;-55
2022/04/02 08:47:03;;;;;;;;;;;;;;;20.35;34.65;102003.22;7279895;19;151824;-56
2022/04/02 08:49:40;;;;;;;;;;;;;;;20.26;34.41;101999.25;7278675;19;152577;-55
2022/04/02 08:52:10;;;;;;;;;;;;;;;20.24;34.63;102001.47;7278883;19;153428;-56
2022/04/02 08:54:46;;;;;;;;;;;;;;;20.26;34.42;102002.06;7278430;19;152925;-56
2022/04/02 08:57:35;;;;;;;;;;;;;;;20.28;34.05;102011.88;7279876;19;153559;-55
2022/04/02 09:00:12;;;;;;;;;;;;;;;20.28;34.32;101997.81;7275868;19;153031;-55
2022/04/02 09:02:39;;;;;;;;;;;;;;;20.31;34.31;102010.47;7286418;19;151624;-56
2022/04/02 09:05:15;;;;;;;;;;;;;;;20.36;33.97;102008.50;7275427;19;154167;-55
2022/04/02 09:07:45;;;;;;;;;;;;;;;20.39;34.15;102007.97;7278128;19;151859;-55
2022/04/02 09:10:11;;;;;;;;;;;;;;;20.41;34.07;102010.47;7278453;19;153769;-57
2022/04/02 09:13:02;;;;;;;;;;;;;;;20.44;33.82;102003.47;7278703;19;152158;-55
2022/04/02 09:15:39;;;;;;;;;;;;;;;20.49;33.98;102001.47;7275256;19;152174;-56
2022/04/02 09:18:17;;;;;;;;;;;;;;;20.52;33.86;102002.91;7279546;19;151639;-56
2022/04/02 09:20:47;;;;;;;;;;;;;;;20.56;33.68;102002.06;7273031;19;154513;-56
2022/04/02 09:23:27;;;;;;;;;;;;;;;20.62;33.93;102009.34;7279875;19;151874;-55
2022/04/02 09:26:00;;;;;;;;;;;;;;;20.67;33.80;102011.31;7284981;19;153732;-55
2022/04/02 09:28:44;;;;;;;;;;;;;;;20.71;33.68;102016.06;7276509;19;153202;-56
2022/04/02 09:31:18;;;;;;;;;;;;;;;20.75;33.81;102007.91;7275779;19;153101;-58
2022/04/02 09:34:03;;;;;;;;;;;;;;;20.81;33.37;102012.38;7276797;19;154659;-58
2022/04/02 09:36:41;;;;;;;;;;;;;;;20.85;33.82;102022.75;7276629;19;151977;-58
2022/04/02 09:39:20;;;;;;;;;;;;;;;20.92;33.54;102016.84;7250512;19;152772;-59
2022/04/02 09:41:50;;;;;;;;;;;;;;;20.96;33.69;102028.34;7262588;19;153414;-56
2022/04/02 09:44:29;;;;;;;;;;;;;;;20.99;33.57;102020.19;7271498;19;151842;-58
2022/04/02 09:47:01;;;;;;;;;;;;;;;21.02;33.63;102016.00;7278771;19;152637;-58
2022/04/02 09:49:34;;;;;;;;;;;;;;;21.06;33.61;102011.47;7265249;19;152940;-58
2022/04/02 09:52:05;;;;;;;;;;;;;;;21.08;33.21;102014.81;7271914;19;153287;-59
2022/04/02 09:54:32;;;;;;;;;;;;;;;21.11;33.45;102025.50;7270926;19;155168;-57
2022/04/02 09:57:06;;;;;;;;;;;;;;;21.16;33.40;102022.72;7274529;19;152139;-59
2022/04/02 09:59:33;;;;;;;;;;;;;;;21.21;33.40;102026.34;7275936;19;153014;-59
2022/04/02 10:02:04;;;;;;;;;;;;;;;21.24;33.16;102020.16;7273116;19;153271;-59
2022/04/02 10:04:42;;;;;;;;;;;;;;;21.28;33.20;102024.06;7275236;19;153165;-58
2022/04/02 10:07:22;;;;;;;;;;;;;;;21.33;33.12;102023.22;7277120;19;152784;-58
2022/04/02 10:09:53;;;;;;;;;;;;;;;21.41;32.86;102016.13;7282551;19;153359;-59
2022/04/02 10:12:21;;;;;;;;;;;;;;;21.45;32.98;102020.88;7276207;19;152963;-58
2022/04/02 10:14:48;;;;;;;;;;;;;;;21.49;33.04;102022.00;7271704;19;152607;-58
2022/04/02 10:17:17;;;;;;;;;;;;;;;21.54;32.88;102016.34;7275024;19;152532;-58
2022/04/02 10:19:53;;;;;;;;;;;;;;;21.59;32.43;102019.13;7274281;19;153669;-58
2022/04/02 10:22:29;;;;;;;;;;;;;;;21.58;32.96;102019.41;7275659;19;154235;-59
2022/04/02 10:24:59;;;;;;;;;;;;;;;21.58;32.82;102025.88;7282451;19;152469;-57
2022/04/02 10:27:29;;;;;;;;;;;;;;;21.58;32.64;102014.63;7283905;19;155915;-56
2022/04/02 10:29:56;;;;;;;;;;;;;;;21.59;32.61;102015.47;7282630;19;155112;-56
2022/04/02 10:32:33;;;;;;;;;;;;;;;21.59;32.43;102027.56;7291100;19;151831;-55
2022/04/02 10:35:07;;;;;;;;;;;;;;;21.65;32.39;102017.97;7282202;19;153376;-56
2022/04/02 10:37:52;;;;;;;;;;;;;;;21.67;32.16;102018.53;7282630;19;153545;-57
2022/04/02 10:40:21;;;;;;;;;;;;;;;21.68;32.75;102013.75;7280850;19;153366;-57
2022/04/02 10:42:49;;;;;;;;;;;;;;;21.66;32.73;102021.66;7276237;19;153373;-57
2022/04/02 10:45:17;;;;;;;;;;;;;;;21.65;32.17;102017.97;7282676;19;152643;-56
2022/04/02 10:47:57;;;;;;;;;;;;;;;21.71;32.27;102010.38;7282155;19;153417;-56
2022/04/02 10:50:25;;;;;;;;;;;;;;;21.76;32.05;102009.50;7281461;19;154534;-56
2022/04/02 10:52:51;;;;;;;;;;;;;;;21.80;32.22;102002.16;7281101;19;152214;-56
2022/04/02 10:55:21;;;;;;;;;;;;;;;21.80;32.22;102011.44;7287094;19;153228;-56
2022/04/02 10:57:48;;;;;;;;;;;;;;;21.74;32.32;102005.00;7282076;19;152148;-57
2022/04/02 11:00:16;;;;;;;;;;;;;;;21.76;32.29;102015.13;7282361;19;153402;-56
2022/04/02 11:02:49;;;;;;;;;;;;;;;21.78;32.09;102007.22;7278715;19;153759;-57
2022/04/02 11:05:17;;;;;;;;;;;;;;;21.79;32.29;102008.91;7279975;19;151867;-56
2022/04/02 11:07:45;;;;;;;;;;;;;;;21.80;32.26;102000.19;7282817;19;153222;-57
2022/04/02 11:10:17;;;;;;;;;;;;;;;21.73;31.80;102003.31;7279762;19;155013;-56
2022/04/02 11:12:46;;;;;;;;;;;;;;;21.66;32.14;102001.97;7282763;19;151883;-57
2022/04/02 11:15:21;;;;;;;;;;;;;;;21.63;31.75;101994.91;7279817;19;152270;-56
2022/04/02 11:17:49;;;;;;;;;;;;;;;21.58;31.99;102000.56;7285466;19;154279;-57
2022/04/02 11:20:20;;;;;;;;;;;;;;;21.53;31.58;102005.41;7279305;19;152104;-57
2022/04/02 11:23:02;;;;;;;;;;;;;;;21.60;32.41;102000.28;7279125;19;154517;-57
2022/04/02 11:25:31;;;;;;;;;;;;;;;21.58;32.35;102002.53;7279402;19;152895;-57
2022/04/02 11:28:18;;;;;;;;;;;;;;;21.60;32.13;102000.28;7278809;19;153932;-57
2022/04/02 11:30:46;;;;;;;;;;;;;;;21.63;32.00;102006.16;7278508;19;153602;-57
2022/04/02 11:33:14;;;;;;;;;;;;;;;21.71;31.76;101993.50;7278326;19;152969;-58
2022/04/02 11:35:51;;;;;;;;;;;;;;;21.78;31.79;101996.81;7279067;19;153211;-59
2022/04/02 11:38:23;;;;;;;;;;;;;;;21.74;31.96;102002.19;7279521;19;153831;-59
2022/04/02 11:41:09;;;;;;;;;;;;;;;21.74;31.87;101995.72;7286567;19;152059;-59
2022/04/02 11:43:37;;;;;;;;;;;;;;;21.80;32.33;102003.00;7270446;19;153891;-61
2022/04/02 11:46:05;;;;;;;;;;;;;;;21.80;32.10;102000.19;7278359;19;152113;-59
2022/04/02 11:48:33;;;;;;;;;;;;;;;21.83;32.19;101996.78;7277423;19;153398;-56
2022/04/02 11:51:10;;;;;;;;;;;;;;;21.99;31.72;101998.38;7276754;19;154128;-65
2022/04/02 11:53:37;;;;;;;;;;;;;;;22.02;31.93;102003.44;7277226;19;153711;-58
2022/04/02 11:56:21;;;;;;;;;;;;;;;22.09;31.87;101991.81;7277052;19;153991;-57
2022/04/02 11:58:50;;;;;;;;;;;;;;;22.15;31.98;101985.03;7276130;19;153444;-57
2022/04/02 12:01:18;;;;;;;;;;;;;;;22.20;31.97;101984.97;7285753;19;151531;-58
2022/04/02 12:03:45;;;;;;;;;;;;;;;22.16;31.77;101975.44;7276565;19;153382;-60
2022/04/02 12:06:12;;;;;;;;;;;;;;;22.18;31.99;101981.59;7277583;19;151949;-57
2022/04/02 12:08:43;;;;;;;;;;;;;;;22.17;32.06;101983.59;7279553;19;153994;-58
2022/04/02 12:11:10;;;;;;;;;;;;;;;22.14;32.24;101988.97;7278586;19;153924;-59
2022/04/02 12:13:37;;;;;;;;;;;;;;;22.14;32.29;101983.34;7275473;19;152109;-58
2022/04/02 12:16:13;;;;;;;;;;;;;;;22.17;32.41;101982.75;7277143;19;152761;-59
2022/04/02 12:18:54;;;;;;;;;;;;;;;22.17;32.42;101991.19;7279144;19;153579;-59
2022/04/02 12:21:31;;;;;;;;;;;;;;;22.21;32.00;101989.50;7276574;19;152365;-57
2022/04/02 12:24:00;;;;;;;;;;;;;;;22.24;31.96;101994.53;7286257;19;155167;-59
2022/04/02 12:26:27;;;;;;;;;;;;;;;22.23;32.55;101998.47;7279417;19;152695;-58
2022/04/02 12:28:58;;;;;;;;;;;;;;;22.19;32.61;102000.19;7279706;19;153455;-58
2022/04/02 12:31:27;;;;;;;;;;;;;;;22.15;32.31;102001.91;7279183;19;153882;-58
2022/04/02 12:33:55;;;;;;;;;;;;;;;22.12;32.68;102002.50;7280312;19;152356;-60
2022/04/02 12:36:28;;;;;;;;;;;;;;;22.07;32.37;102011.84;7280293;19;152635;-58
2022/04/02 12:39:03;;;;;;;;;;;;;;;22.05;32.06;102016.06;7274707;19;153790;-58
2022/04/02 12:41:30;;;;;;;;;;;;;;;22.02;32.47;102017.50;7278367;19;151969;-57
2022/04/02 12:44:01;;;;;;;;;;;;;;;22.00;32.84;102010.47;7273540;19;153469;-58